Time;durP1;ratioP1;P1;durP2;ratioP2;P2;SDS_P1;SDS_P2;PMS_P1;PMS_P2;Temp;Humidity;BMP_temperature;BMP_pressure;BME280_temperature;BME280_humidity;BME280_pressure;Samples;Min_cycle;Max_cycle;Signal;HPM_P1;HPM_P2
2021/12/23 00:01:35;;;;;;;73.82;40.38;;;0.60;87.00;;;;;;5024874;28;20103;-78
2021/12/23 00:04:01;;;;;;;72.70;40.03;;;0.60;86.90;;;;;;5005372;28;20672;-78
2021/12/23 00:06:27;;;;;;;72.40;40.13;;;0.60;86.90;;;;;;5007047;28;20081;-76
2021/12/23 00:08:53;;;;;;;67.88;38.05;;;0.70;86.80;;;;;;5013415;28;20022;-77
2021/12/23 00:11:19;;;;;;;72.05;38.88;;;0.60;86.80;;;;;;5011883;28;20029;-78
2021/12/23 00:13:58;;;;;;;71.45;40.22;;;0.60;86.80;;;;;;5010145;28;20018;-78
2021/12/23 00:16:41;;;;;;;69.18;38.50;;;0.60;86.90;;;;;;5026310;28;20074;-77
2021/12/23 00:19:21;;;;;;;66.50;37.00;;;0.60;86.90;;;;;;5013329;28;20033;-77
2021/12/23 00:24:33;;;;;;;68.25;38.90;;;0.70;86.80;;;;;;5011902;28;20062;-79
2021/12/23 00:26:59;;;;;;;68.47;38.03;;;0.70;86.80;;;;;;5012862;28;20229;-79
2021/12/23 00:29:26;;;;;;;72.15;39.33;;;0.70;86.80;;;;;;5012779;28;20303;-74
2021/12/23 00:31:52;;;;;;;66.47;37.38;;;0.70;86.70;;;;;;5010649;28;20018;-77
2021/12/23 00:34:18;;;;;;;72.78;41.47;;;0.70;86.70;;;;;;5012457;28;20046;-78
2021/12/23 00:36:46;;;;;;;69.07;37.72;;;0.70;86.70;;;;;;5009004;28;20019;-79
2021/12/23 00:39:13;;;;;;;66.53;37.15;;;0.70;86.90;;;;;;5014874;28;20022;-76
2021/12/23 00:41:42;;;;;;;68.80;40.17;;;0.70;86.90;;;;;;5014895;28;20094;-77
2021/12/23 00:44:07;;;;;;;71.55;38.78;;;0.70;86.80;;;;;;5010134;28;20023;-77
2021/12/23 00:46:33;;;;;;;67.60;39.10;;;0.70;86.90;;;;;;5021171;28;20110;-75
2021/12/23 00:48:59;;;;;;;68.18;38.10;;;0.60;87.10;;;;;;5013169;28;20038;-77
2021/12/23 00:51:25;;;;;;;68.15;39.78;;;0.70;87.00;;;;;;5012404;28;20033;-77
2021/12/23 00:53:53;;;;;;;68.22;38.03;;;0.60;87.10;;;;;;5008728;28;20053;-79
2021/12/23 00:56:19;;;;;;;69.50;38.67;;;0.70;87.00;;;;;;5013138;28;20022;-74
2021/12/23 00:58:44;;;;;;;71.88;40.05;;;0.70;87.00;;;;;;5013094;28;20048;-79
2021/12/23 01:01:10;;;;;;;74.85;38.45;;;0.70;87.00;;;;;;5018301;28;20351;-78
2021/12/23 01:03:36;;;;;;;69.70;39.50;;;0.70;87.10;;;;;;5014638;28;20431;-78
2021/12/23 01:06:03;;;;;;;72.72;40.47;;;0.70;87.20;;;;;;5010701;28;20086;-75
2021/12/23 01:08:29;;;;;;;72.50;38.40;;;0.70;87.20;;;;;;5012758;28;20102;-79
2021/12/23 01:10:58;;;;;;;73.35;39.45;;;0.70;87.30;;;;;;5010168;28;20030;-77
2021/12/23 01:13:29;;;;;;;69.03;40.30;;;0.70;87.30;;;;;;5005032;28;20018;-79
2021/12/23 01:16:05;;;;;;;73.28;39.25;;;0.70;87.30;;;;;;5006176;28;20082;-79
2021/12/23 01:18:37;;;;;;;81.13;42.17;;;0.70;87.30;;;;;;5023528;28;20049;-81
2021/12/23 01:21:15;;;;;;;75.60;42.28;;;0.70;87.40;;;;;;5007513;28;20328;-79
2021/12/23 01:23:48;;;;;;;71.63;39.15;;;0.70;87.30;;;;;;5000789;28;20023;-75
2021/12/23 01:26:18;;;;;;;71.93;39.05;;;0.70;87.30;;;;;;5035959;28;20014;-79
2021/12/23 01:28:46;;;;;;;71.40;39.83;;;0.80;87.40;;;;;;5014618;28;20078;-79
2021/12/23 01:31:11;;;;;;;71.10;39.30;;;0.80;87.40;;;;;;5010108;28;20030;-80
2021/12/23 01:33:37;;;;;;;75.80;41.28;;;0.90;87.30;;;;;;5016701;28;20027;-77
2021/12/23 01:36:03;;;;;;;74.82;40.08;;;0.90;87.40;;;;;;5013087;28;20102;-79
2021/12/23 01:38:28;;;;;;;76.30;40.88;;;0.90;87.50;;;;;;5016464;28;20086;-79
2021/12/23 01:40:54;;;;;;;72.88;39.45;;;0.90;87.40;;;;;;5010826;28;20035;-79
2021/12/23 01:43:20;;;;;;;76.35;42.10;;;0.90;87.40;;;;;;5011578;28;20030;-79
2021/12/23 01:45:49;;;;;;;77.65;40.92;;;0.90;87.40;;;;;;5021827;28;20118;-79
2021/12/23 01:48:17;;;;;;;83.15;42.28;;;0.90;87.40;;;;;;5017137;28;20023;-79
2021/12/23 01:50:43;;;;;;;79.90;41.13;;;0.90;87.40;;;;;;5013829;28;20050;-79
2021/12/23 01:53:10;;;;;;;81.55;43.22;;;1.00;87.50;;;;;;5013012;28;20033;-80
2021/12/23 01:55:37;;;;;;;82.95;43.95;;;0.90;87.50;;;;;;5018584;28;20871;-79
2021/12/23 01:58:05;;;;;;;83.53;45.75;;;0.90;87.50;;;;;;5015618;28;20031;-80
2021/12/23 02:00:34;;;;;;;77.75;40.88;;;0.90;87.50;;;;;;5017067;28;20023;-79
2021/12/23 02:03:00;;;;;;;80.65;41.50;;;0.90;87.60;;;;;;5019412;28;20018;-80
2021/12/23 02:05:26;;;;;;;77.68;40.05;;;0.80;87.80;;;;;;5010340;28;20090;-79
2021/12/23 02:07:53;;;;;;;77.88;38.80;;;0.90;87.90;;;;;;5018480;28;20026;-80
2021/12/23 02:10:19;;;;;;;76.93;41.42;;;0.80;87.90;;;;;;5016474;28;20022;-76
2021/12/23 02:12:46;;;;;;;76.88;40.63;;;0.80;88.00;;;;;;5018904;28;20045;-79
2021/12/23 02:15:13;;;;;;;83.97;42.80;;;0.80;87.80;;;;;;5026570;28;20061;-79
2021/12/23 02:17:39;;;;;;;77.30;41.17;;;0.90;87.90;;;;;;5034439;28;20053;-80
2021/12/23 02:20:10;;;;;;;74.90;41.60;;;0.90;87.80;;;;;;5016970;28;20018;-75
2021/12/23 02:22:38;;;;;;;79.93;40.97;;;0.80;88.00;;;;;;5020654;28;20046;-80
2021/12/23 02:25:06;;;;;;;76.53;41.05;;;0.80;88.10;;;;;;5013380;28;20018;-79
2021/12/23 02:27:32;;;;;;;80.40;41.83;;;0.80;88.20;;;;;;5013693;28;20038;-78
2021/12/23 02:29:58;;;;;;;78.68;40.70;;;0.80;88.20;;;;;;5016195;28;20018;-79
2021/12/23 02:32:23;;;;;;;73.88;40.78;;;0.80;88.20;;;;;;5015626;28;20049;-79
2021/12/23 02:34:49;;;;;;;78.88;40.00;;;0.80;88.20;;;;;;5014282;28;20038;-76
2021/12/23 02:37:15;;;;;;;78.65;39.75;;;0.80;88.30;;;;;;5014884;28;20042;-78
2021/12/23 02:39:41;;;;;;;73.93;40.22;;;0.80;88.30;;;;;;5016899;28;20040;-80
2021/12/23 02:42:11;;;;;;;74.78;38.33;;;0.80;88.20;;;;;;5013902;28;20105;-79
2021/12/23 02:44:36;;;;;;;76.20;39.10;;;0.90;88.20;;;;;;5027940;28;20038;-80
2021/12/23 02:47:02;;;;;;;73.57;39.97;;;0.90;88.20;;;;;;5019081;28;20034;-79
2021/12/23 02:49:28;;;;;;;77.75;42.17;;;0.90;88.20;;;;;;5018365;28;20020;-79
2021/12/23 02:51:53;;;;;;;74.30;39.83;;;0.90;88.30;;;;;;5018478;28;20029;-79
2021/12/23 02:54:19;;;;;;;78.72;41.45;;;0.80;88.30;;;;;;5020190;28;20019;-79
2021/12/23 02:56:45;;;;;;;78.63;39.50;;;0.90;88.20;;;;;;5010449;28;20019;-79
2021/12/23 02:59:11;;;;;;;75.55;39.83;;;0.80;88.40;;;;;;5042344;28;20022;-75
2021/12/23 03:01:37;;;;;;;74.78;39.83;;;0.80;88.30;;;;;;5015709;28;20077;-78
2021/12/23 03:04:03;;;;;;;72.60;40.00;;;0.80;88.40;;;;;;5037263;28;20098;-80
2021/12/23 03:06:29;;;;;;;73.72;39.90;;;0.80;88.40;;;;;;5031233;28;20045;-79
2021/12/23 03:08:59;;;;;;;72.53;39.40;;;0.80;88.40;;;;;;5013408;28;20035;-79
2021/12/23 03:11:26;;;;;;;77.43;39.75;;;0.70;88.50;;;;;;5010010;28;20087;-77
2021/12/23 03:13:52;;;;;;;73.82;38.10;;;0.80;88.60;;;;;;5017960;28;20015;-79
2021/12/23 03:16:20;;;;;;;74.32;37.33;;;0.80;88.70;;;;;;5013448;28;20049;-79
2021/12/23 03:18:46;;;;;;;75.03;39.72;;;0.80;88.60;;;;;;5013818;28;20045;-79
2021/12/23 03:21:11;;;;;;;73.20;37.85;;;0.80;88.70;;;;;;5010446;28;20027;-78
2021/12/23 03:23:38;;;;;;;74.72;38.60;;;0.80;88.70;;;;;;5014094;28;20042;-78
2021/12/23 03:26:04;;;;;;;76.78;38.33;;;0.80;88.70;;;;;;5017684;28;20029;-79
2021/12/23 03:28:30;;;;;;;73.88;37.70;;;0.80;88.70;;;;;;5019258;28;20089;-79
2021/12/23 03:30:57;;;;;;;74.03;38.83;;;0.80;88.80;;;;;;5009464;28;21570;-79
2021/12/23 03:33:23;;;;;;;73.82;38.63;;;0.80;88.80;;;;;;5015672;28;20033;-78
2021/12/23 03:35:48;;;;;;;69.82;36.60;;;0.80;88.70;;;;;;5013037;28;20088;-79
2021/12/23 03:38:15;;;;;;;70.68;37.35;;;0.70;88.80;;;;;;5037573;28;20081;-78
2021/12/23 03:40:42;;;;;;;75.70;37.90;;;0.80;88.80;;;;;;5021723;28;20021;-79
2021/12/23 03:43:11;;;;;;;78.00;39.33;;;0.80;88.60;;;;;;5016786;28;20068;-76
2021/12/23 03:45:37;;;;;;;74.50;40.22;;;0.80;88.70;;;;;;5013615;28;20022;-79
2021/12/23 03:48:03;;;;;;;69.75;37.92;;;0.80;88.80;;;;;;5010721;28;20025;-79
2021/12/23 03:50:29;;;;;;;66.85;36.47;;;0.80;88.90;;;;;;5024627;28;20049;-77
2021/12/23 03:52:54;;;;;;;70.18;38.63;;;0.80;88.80;;;;;;5019385;28;20037;-79
2021/12/23 03:55:20;;;;;;;76.15;39.20;;;0.80;88.90;;;;;;5016653;28;20022;-80
2021/12/23 03:57:46;;;;;;;68.93;36.95;;;0.70;88.90;;;;;;5014672;28;20098;-79
2021/12/23 04:00:15;;;;;;;70.85;36.67;;;0.70;88.80;;;;;;5021756;28;20145;-79
2021/12/23 04:02:41;;;;;;;74.72;37.42;;;0.70;89.00;;;;;;5019153;28;20064;-79
2021/12/23 04:05:08;;;;;;;72.93;37.72;;;0.80;89.00;;;;;;5016940;28;20018;-79
2021/12/23 04:07:35;;;;;;;72.35;37.50;;;0.70;88.90;;;;;;5013153;28;20022;-79
2021/12/23 04:10:01;;;;;;;68.82;36.72;;;0.70;89.00;;;;;;5020223;28;20048;-79
2021/12/23 04:12:27;;;;;;;67.80;36.58;;;0.70;89.00;;;;;;5013986;28;20018;-76
2021/12/23 04:14:53;;;;;;;66.95;36.05;;;0.80;88.90;;;;;;5020502;28;20034;-79
2021/12/23 04:17:18;;;;;;;71.68;37.78;;;0.80;88.90;;;;;;5013124;28;20019;-79
2021/12/23 04:19:46;;;;;;;72.80;37.00;;;0.80;88.90;;;;;;5011958;28;20025;-79
2021/12/23 04:22:12;;;;;;;72.18;36.47;;;0.80;88.90;;;;;;5012087;28;20041;-77
2021/12/23 04:24:38;;;;;;;71.72;36.38;;;0.70;89.00;;;;;;5015890;28;20052;-78
2021/12/23 04:27:04;;;;;;;69.50;36.20;;;0.80;88.90;;;;;;5013901;28;20026;-78
2021/12/23 04:29:30;;;;;;;67.78;35.97;;;0.80;88.90;;;;;;5040834;28;20082;-79
2021/12/23 04:31:55;;;;;;;71.97;37.85;;;0.80;89.00;;;;;;5011444;28;20089;-79
2021/12/23 04:34:21;;;;;;;67.82;37.17;;;0.80;88.90;;;;;;5008799;28;20109;-79
2021/12/23 04:36:47;;;;;;;65.93;35.22;;;0.80;89.00;;;;;;5021875;28;20061;-79
2021/12/23 04:39:12;;;;;;;66.75;37.70;;;0.80;88.90;;;;;;5014452;28;20030;-78
2021/12/23 04:41:38;;;;;;;65.95;36.65;;;0.90;88.80;;;;;;5014310;28;20057;-78
2021/12/23 04:44:05;;;;;;;66.43;35.55;;;0.90;88.80;;;;;;5032343;28;20030;-78
2021/12/23 04:46:31;;;;;;;68.90;36.28;;;0.90;88.70;;;;;;5012272;28;20018;-79
2021/12/23 04:48:57;;;;;;;68.22;36.78;;;0.90;88.70;;;;;;5011319;28;20073;-80
2021/12/23 04:51:23;;;;;;;70.80;36.80;;;0.90;88.60;;;;;;5013430;28;20014;-76
2021/12/23 04:53:49;;;;;;;68.88;35.42;;;0.90;88.60;;;;;;5012133;28;20038;-79
2021/12/23 04:56:16;;;;;;;66.07;35.50;;;0.90;88.70;;;;;;5032484;28;20037;-79
2021/12/23 04:58:42;;;;;;;68.57;36.83;;;0.90;88.70;;;;;;5013724;28;20076;-80
2021/12/23 05:01:19;;;;;;;65.05;37.08;;;0.90;88.80;;;;;;5023092;28;20101;-79
2021/12/23 05:03:44;;;;;;;63.55;34.53;;;0.90;88.80;;;;;;5010269;28;20034;-80
2021/12/23 05:06:10;;;;;;;66.68;36.55;;;1.00;88.70;;;;;;5011906;28;20028;-79
2021/12/23 05:08:35;;;;;;;71.60;36.13;;;1.00;88.60;;;;;;5014240;28;20029;-79
2021/12/23 05:11:01;;;;;;;63.72;35.25;;;1.10;88.60;;;;;;5018179;28;20038;-77
2021/12/23 05:13:27;;;;;;;66.03;35.63;;;1.10;88.60;;;;;;5015080;28;20022;-79
2021/12/23 05:15:52;;;;;;;65.55;35.08;;;1.10;88.50;;;;;;5020316;28;20107;-78
2021/12/23 05:18:18;;;;;;;62.60;35.30;;;1.10;88.50;;;;;;5014654;28;20023;-78
2021/12/23 05:20:44;;;;;;;66.18;35.42;;;1.10;88.40;;;;;;5019506;28;20038;-79
2021/12/23 05:23:09;;;;;;;62.10;34.03;;;1.10;88.50;;;;;;5014494;28;20030;-79
2021/12/23 05:25:35;;;;;;;60.08;33.60;;;1.10;88.40;;;;;;5024440;28;20018;-79
2021/12/23 05:28:01;;;;;;;64.20;34.90;;;1.10;88.30;;;;;;5017975;28;20014;-79
2021/12/23 05:30:27;;;;;;;64.97;35.53;;;1.10;88.40;;;;;;5023961;28;20026;-80
2021/12/23 05:32:53;;;;;;;61.78;35.22;;;1.10;88.20;;;;;;5016127;28;20022;-79
2021/12/23 05:35:20;;;;;;;62.67;34.75;;;1.10;88.30;;;;;;5013515;28;20037;-76
2021/12/23 05:37:47;;;;;;;58.72;34.03;;;1.20;88.30;;;;;;5014285;28;20031;-81
2021/12/23 05:40:15;;;;;;;63.95;33.67;;;1.20;88.30;;;;;;5016797;28;20049;-79
2021/12/23 05:42:42;;;;;;;63.10;34.78;;;1.30;88.30;;;;;;5013985;28;20034;-76
2021/12/23 05:45:09;;;;;;;59.38;33.58;;;1.20;88.20;;;;;;5036149;28;20018;-79
2021/12/23 05:47:34;;;;;;;59.58;33.83;;;1.20;88.20;;;;;;5013954;28;20028;-80
2021/12/23 05:50:00;;;;;;;65.53;36.25;;;1.20;88.20;;;;;;5028421;28;20014;-80
2021/12/23 05:52:26;;;;;;;61.55;32.65;;;1.30;88.00;;;;;;5015209;28;20035;-80
2021/12/23 05:54:52;;;;;;;62.50;32.10;;;1.30;88.00;;;;;;5013549;28;20018;-76
2021/12/23 05:57:18;;;;;;;62.47;33.65;;;1.30;87.90;;;;;;5019827;28;20102;-78
2021/12/23 05:59:43;;;;;;;63.15;34.13;;;1.30;87.90;;;;;;5020069;28;20037;-79
2021/12/23 06:02:09;;;;;;;61.03;33.97;;;1.30;87.80;;;;;;5031863;28;20033;-80
2021/12/23 06:04:35;;;;;;;54.35;31.02;;;1.30;87.90;;;;;;5019356;28;20022;-80
2021/12/23 06:07:02;;;;;;;62.67;33.70;;;1.40;87.70;;;;;;5016297;28;20090;-78
2021/12/23 06:09:27;;;;;;;61.72;32.67;;;1.40;87.60;;;;;;5013605;28;20014;-76
2021/12/23 06:11:53;;;;;;;55.53;32.95;;;1.40;87.60;;;;;;5010622;28;20023;-79
2021/12/23 06:14:21;;;;;;;58.05;31.40;;;1.40;87.60;;;;;;5015462;28;20058;-79
2021/12/23 06:16:48;;;;;;;56.10;32.25;;;1.40;87.50;;;;;;5012838;28;20077;-80
2021/12/23 06:19:14;;;;;;;60.70;32.85;;;1.40;87.40;;;;;;5025038;28;20034;-79
2021/12/23 06:21:39;;;;;;;58.40;32.30;;;1.40;87.40;;;;;;5019391;28;20062;-76
2021/12/23 06:24:06;;;;;;;55.88;32.13;;;1.40;87.40;;;;;;5021746;28;20027;-79
2021/12/23 06:26:32;;;;;;;55.78;32.40;;;1.40;87.40;;;;;;5019768;28;20090;-80
2021/12/23 06:28:58;;;;;;;57.85;33.40;;;1.40;87.50;;;;;;5015462;28;20025;-79
2021/12/23 06:31:25;;;;;;;59.33;34.47;;;1.50;87.40;;;;;;5008852;28;20011;-78
2021/12/23 06:33:50;;;;;;;60.97;34.65;;;1.50;87.30;;;;;;5025178;28;20038;-79
2021/12/23 06:36:17;;;;;;;60.78;33.85;;;1.60;87.20;;;;;;5008174;28;20057;-78
2021/12/23 06:38:44;;;;;;;55.17;32.53;;;1.60;87.20;;;;;;5010025;28;20038;-79
2021/12/23 06:41:11;;;;;;;60.10;33.28;;;1.60;87.10;;;;;;5010354;28;20026;-79
2021/12/23 06:43:37;;;;;;;54.33;32.17;;;1.60;87.10;;;;;;5020953;28;20134;-76
2021/12/23 06:46:03;;;;;;;56.83;32.03;;;1.60;87.00;;;;;;5017298;28;20019;-80
2021/12/23 06:48:32;;;;;;;53.45;31.80;;;1.60;87.00;;;;;;5013437;28;20030;-79
2021/12/23 06:50:59;;;;;;;56.70;32.33;;;1.60;86.90;;;;;;5026512;28;20022;-77
2021/12/23 06:53:26;;;;;;;55.10;30.40;;;1.60;87.00;;;;;;5010646;28;20022;-77
2021/12/23 06:55:52;;;;;;;58.15;32.95;;;1.60;87.00;;;;;;5021694;28;20045;-80
2021/12/23 06:58:23;;;;;;;63.25;35.17;;;1.60;86.90;;;;;;5018161;28;20365;-79
2021/12/23 07:00:51;;;;;;;52.88;32.22;;;1.60;86.90;;;;;;5025162;28;20026;-80
2021/12/23 07:03:17;;;;;;;54.17;30.05;;;1.70;86.80;;;;;;5016535;28;20052;-76
2021/12/23 07:05:43;;;;;;;57.15;32.72;;;1.70;86.80;;;;;;5011834;28;20022;-77
2021/12/23 07:08:24;;;;;;;56.53;31.55;;;1.60;86.80;;;;;;5013605;28;20018;-76
2021/12/23 07:10:50;;;;;;;52.03;30.05;;;1.70;86.70;;;;;;5009680;28;20026;-76
2021/12/23 07:13:16;;;;;;;61.72;35.25;;;1.70;86.70;;;;;;5011399;28;20034;-79
2021/12/23 07:15:41;;;;;;;55.80;30.80;;;1.70;86.60;;;;;;5018462;28;20085;-77
2021/12/23 07:18:07;;;;;;;70.03;32.75;;;1.80;86.60;;;;;;5015604;28;20026;-78
2021/12/23 07:20:33;;;;;;;53.70;31.30;;;1.70;86.70;;;;;;5036379;28;20023;-78
2021/12/23 07:23:00;;;;;;;61.33;33.08;;;1.80;86.60;;;;;;5023905;28;20042;-79
2021/12/23 07:25:26;;;;;;;58.95;32.13;;;1.80;86.60;;;;;;5005507;28;20080;-79
2021/12/23 07:27:52;;;;;;;52.58;31.17;;;1.80;86.40;;;;;;5015306;28;20041;-80
2021/12/23 07:30:19;;;;;;;53.78;31.48;;;1.80;86.30;;;;;;5020454;28;20026;-79
2021/12/23 07:32:45;;;;;;;56.35;31.40;;;1.80;86.30;;;;;;5009887;28;20086;-81
2021/12/23 07:35:11;;;;;;;55.13;32.33;;;1.80;86.20;;;;;;5012365;28;20308;-76
2021/12/23 07:37:37;;;;;;;56.17;32.45;;;1.90;86.10;;;;;;5012274;28;20272;-77
2021/12/23 07:40:05;;;;;;;57.72;32.38;;;1.90;86.00;;;;;;5012795;28;20022;-78
2021/12/23 07:42:32;;;;;;;51.60;30.75;;;1.90;86.00;;;;;;5010747;28;20026;-79
2021/12/23 07:44:58;;;;;;;60.17;32.90;;;1.90;86.00;;;;;;5018557;28;20011;-79
2021/12/23 07:47:25;;;;;;;56.08;32.20;;;1.90;85.90;;;;;;5012136;28;20030;-76
2021/12/23 07:49:50;;;;;;;57.35;32.00;;;1.80;85.80;;;;;;5006562;28;20018;-79
2021/12/23 07:52:16;;;;;;;59.38;32.85;;;1.90;85.90;;;;;;5015971;28;20037;-80
2021/12/23 07:54:42;;;;;;;54.10;32.55;;;1.90;85.90;;;;;;5017330;28;20026;-75
2021/12/23 07:57:08;;;;;;;55.15;32.45;;;1.90;85.90;;;;;;5011713;28;20030;-78
2021/12/23 07:59:33;;;;;;;59.97;34.70;;;1.90;85.80;;;;;;5025192;28;20022;-79
2021/12/23 08:01:59;;;;;;;62.10;35.05;;;1.90;85.90;;;;;;5013397;28;20034;-76
2021/12/23 08:04:26;;;;;;;56.10;33.22;;;1.90;85.80;;;;;;5011909;28;20042;-77
2021/12/23 08:06:57;;;;;;;69.25;35.80;;;1.90;85.80;;;;;;5008444;28;20015;-79
2021/12/23 08:09:24;;;;;;;60.13;33.30;;;1.90;85.90;;;;;;5005531;28;20065;-78
2021/12/23 08:11:50;;;;;;;59.05;32.95;;;1.90;85.80;;;;;;5013243;28;20357;-80
2021/12/23 08:14:17;;;;;;;55.97;32.70;;;1.90;85.90;;;;;;5022744;28;20326;-79
2021/12/23 08:16:43;;;;;;;61.33;32.00;;;2.00;85.60;;;;;;5002609;28;20022;-76
2021/12/23 08:19:10;;;;;;;54.05;32.28;;;2.00;85.60;;;;;;5009687;28;20034;-72
2021/12/23 08:21:35;;;;;;;56.58;31.15;;;2.00;85.60;;;;;;5010759;28;20339;-74
2021/12/23 08:24:01;;;;;;;57.65;32.45;;;2.10;85.40;;;;;;5004671;28;20034;-73
2021/12/23 08:26:29;;;;;;;52.58;30.65;;;2.10;85.30;;;;;;5010359;28;20038;-75
2021/12/23 08:28:57;;;;;;;55.58;32.33;;;2.10;85.30;;;;;;5004484;28;20247;-75
2021/12/23 08:31:24;;;;;;;55.67;31.80;;;2.10;85.10;;;;;;5010147;28;20022;-76
2021/12/23 08:33:50;;;;;;;57.88;32.20;;;2.10;85.30;;;;;;5007217;28;20042;-76
2021/12/23 08:36:16;;;;;;;53.42;31.77;;;2.10;85.20;;;;;;5007191;28;20030;-72
2021/12/23 08:38:43;;;;;;;55.30;31.75;;;2.20;85.00;;;;;;5014727;28;20109;-75
2021/12/23 08:41:09;;;;;;;54.35;30.95;;;2.20;84.90;;;;;;5012415;28;20035;-72
2021/12/23 08:43:35;;;;;;;55.33;31.95;;;2.20;84.80;;;;;;5023787;28;20060;-75
2021/12/23 08:46:01;;;;;;;54.35;32.40;;;2.20;84.80;;;;;;5012566;28;20018;-71
2021/12/23 08:48:26;;;;;;;58.72;34.03;;;2.20;84.80;;;;;;5012583;28;20014;-72
2021/12/23 08:50:52;;;;;;;55.90;30.65;;;2.30;84.70;;;;;;5007805;28;20034;-71
2021/12/23 08:53:19;;;;;;;50.55;30.27;;;2.40;84.50;;;;;;5008489;28;20018;-76
2021/12/23 08:55:44;;;;;;;52.65;30.15;;;2.40;84.40;;;;;;5009387;28;20086;-76
2021/12/23 08:58:10;;;;;;;52.42;30.80;;;2.40;84.30;;;;;;5006765;28;20032;-75
2021/12/23 09:00:37;;;;;;;54.25;31.33;;;2.40;84.10;;;;;;5022671;28;20037;-76
2021/12/23 09:03:05;;;;;;;56.60;32.97;;;2.40;84.30;;;;;;5010036;28;20038;-74
2021/12/23 09:05:32;;;;;;;51.13;29.98;;;2.40;84.10;;;;;;5009234;28;20038;-75
2021/12/23 09:07:58;;;;;;;50.22;30.38;;;2.50;84.10;;;;;;5009171;28;20025;-75
2021/12/23 09:10:24;;;;;;;49.65;30.70;;;2.60;83.90;;;;;;5006200;28;20023;-74
2021/12/23 09:12:51;;;;;;;48.65;30.80;;;2.60;83.80;;;;;;5005922;28;20133;-75
2021/12/23 09:15:18;;;;;;;50.08;29.77;;;2.60;83.70;;;;;;5010028;28;20053;-76
2021/12/23 09:17:44;;;;;;;47.92;28.85;;;2.70;83.60;;;;;;5009682;28;20037;-76
2021/12/23 09:20:11;;;;;;;50.30;29.13;;;2.70;83.60;;;;;;5010610;28;20026;-71
2021/12/23 09:22:38;;;;;;;47.92;29.13;;;2.80;83.20;;;;;;5016249;28;20050;-74
2021/12/23 09:25:11;;;;;;;47.50;28.88;;;2.80;83.20;;;;;;5010416;28;20027;-74
2021/12/23 09:27:50;;;;;;;49.60;29.63;;;2.90;83.10;;;;;;5007154;28;20034;-75
2021/12/23 09:33:02;;;;;;;47.92;30.00;;;2.90;82.80;;;;;;5009787;28;20090;-72
2021/12/23 09:35:30;;;;;;;51.47;29.40;;;3.10;83.20;;;;;;5002478;28;20046;-74
2021/12/23 09:37:57;;;;;;;55.70;31.35;;;3.00;82.50;;;;;;5003776;28;20078;-70
2021/12/23 09:40:23;;;;;;;49.45;29.67;;;3.00;82.70;;;;;;5007252;28;20038;-75
2021/12/23 09:42:51;;;;;;;49.00;29.75;;;3.00;82.80;;;;;;4999952;28;20074;-76
2021/12/23 09:45:18;;;;;;;50.17;29.23;;;3.10;82.80;;;;;;5014320;28;20038;-75
2021/12/23 09:47:47;;;;;;;50.00;30.48;;;3.10;82.90;;;;;;5012245;28;20037;-76
2021/12/23 09:50:17;;;;;;;47.20;29.45;;;3.10;83.00;;;;;;5022125;28;20023;-77
2021/12/23 09:52:46;;;;;;;49.58;29.80;;;3.10;82.90;;;;;;5011762;28;20053;-76
2021/12/23 09:55:15;;;;;;;51.15;29.05;;;3.10;82.80;;;;;;5021347;28;20029;-71
2021/12/23 09:57:44;;;;;;;47.35;28.58;;;3.20;82.70;;;;;;5014460;28;20050;-76
2021/12/23 10:00:11;;;;;;;46.22;28.30;;;3.20;82.70;;;;;;5014894;28;20018;-71
2021/12/23 10:02:40;;;;;;;51.00;30.33;;;3.30;82.50;;;;;;5023678;28;20466;-75
2021/12/23 10:05:11;;;;;;;50.97;31.25;;;3.40;82.40;;;;;;5016010;28;20077;-74
2021/12/23 10:07:38;;;;;;;46.85;29.40;;;3.50;82.30;;;;;;5020468;28;20044;-73
2021/12/23 10:10:19;;;;;;;50.22;30.15;;;3.50;82.00;;;;;;5022306;28;20018;-69
2021/12/23 10:33:14;;;;;;;49.63;29.05;;;3.80;81.20;;;;;;5008618;28;20038;-75
2021/12/23 10:38:36;;;;;;;47.75;30.42;;;3.80;81.60;;;;;;5007643;28;20033;-75
2021/12/23 10:41:09;;;;;;;51.80;31.17;;;3.90;81.50;;;;;;4999495;28;20030;-73
2021/12/23 10:43:48;;;;;;;47.85;30.40;;;4.00;81.60;;;;;;5009777;28;20034;-75
2021/12/23 10:46:20;;;;;;;52.22;30.55;;;4.00;81.40;;;;;;5021636;28;20026;-74
2021/12/23 10:49:02;;;;;;;48.85;29.35;;;4.10;81.30;;;;;;5008989;28;20023;-75
2021/12/23 10:51:55;;;;;;;52.67;31.45;;;4.20;81.40;;;;;;5009798;28;20022;-74
2021/12/23 11:00:15;;;;;;;48.97;30.35;;;4.80;80.10;;;;;;5006740;28;20045;-72
2021/12/23 11:02:58;;;;;;;44.58;28.42;;;4.90;79.40;;;;;;5005000;28;20042;-76
2021/12/23 11:05:29;;;;;;;47.92;29.70;;;5.10;78.90;;;;;;5011085;28;20019;-74
2021/12/23 11:11:42;;;;;;;45.47;29.58;;;5.40;78.10;;;;;;5018909;28;20356;-77
2021/12/23 11:38:28;;;;;;;45.10;29.63;;;4.80;80.10;;;;;;5018882;28;20030;-74
2021/12/23 11:40:59;;;;;;;44.05;29.73;;;4.80;80.30;;;;;;5017595;28;20045;-74
2021/12/23 11:43:33;;;;;;;44.10;29.25;;;5.00;80.10;;;;;;5012018;28;20046;-71
2021/12/23 11:46:00;;;;;;;46.45;29.25;;;5.10;79.80;;;;;;5030403;28;20057;-70
2021/12/23 11:48:26;;;;;;;48.20;31.45;;;5.10;79.70;;;;;;5016638;28;20086;-75
2021/12/23 11:51:06;;;;;;;43.88;28.75;;;5.10;79.90;;;;;;5013483;28;20052;-74
2021/12/23 11:53:32;;;;;;;45.30;28.77;;;5.10;80.00;;;;;;5014634;28;20030;-75
2021/12/23 11:56:00;;;;;;;44.60;28.67;;;5.30;80.20;;;;;;5020022;28;20021;-75
2021/12/23 11:58:28;;;;;;;45.38;30.23;;;5.30;79.80;;;;;;5027257;28;20025;-75
2021/12/23 12:01:05;;;;;;;46.55;29.55;;;5.40;79.80;;;;;;5033868;28;20077;-75
2021/12/23 12:03:38;;;;;;;42.75;29.05;;;5.30;79.90;;;;;;5021602;28;20045;-75
2021/12/23 12:06:19;;;;;;;42.15;29.05;;;5.40;80.10;;;;;;5031391;28;20010;-74
2021/12/23 12:08:45;;;;;;;43.97;28.95;;;5.40;80.10;;;;;;5014902;28;20022;-76
2021/12/23 12:11:19;;;;;;;48.72;30.60;;;5.50;80.30;;;;;;5007623;28;20034;-75
2021/12/23 12:13:48;;;;;;;42.85;30.10;;;5.50;80.00;;;;;;5006102;28;20027;-75
2021/12/23 12:16:34;;;;;;;39.65;27.42;;;5.60;80.40;;;;;;5022517;28;20034;-74
2021/12/23 12:19:03;;;;;;;45.72;29.75;;;5.40;80.40;;;;;;5003053;28;20023;-76
2021/12/23 12:21:34;;;;;;;41.90;29.08;;;5.40;80.80;;;;;;5006974;28;20054;-72
2021/12/23 12:24:15;;;;;;;45.40;28.98;;;5.40;81.00;;;;;;5005283;28;20029;-77
2021/12/23 12:26:51;;;;;;;46.92;28.98;;;5.30;81.60;;;;;;5008979;28;20633;-77
2021/12/23 12:29:20;;;;;;;46.63;30.42;;;5.40;81.60;;;;;;5006589;28;20102;-73
2021/12/23 12:31:47;;;;;;;47.08;30.40;;;5.30;82.00;;;;;;5008939;28;20022;-77
2021/12/23 12:34:13;;;;;;;48.00;30.20;;;5.40;82.30;;;;;;5018448;28;20026;-76
2021/12/23 12:36:50;;;;;;;45.40;29.70;;;5.30;82.40;;;;;;5013812;28;20027;-76
2021/12/23 12:39:21;;;;;;;49.50;31.77;;;5.10;82.80;;;;;;5008863;28;20026;-75
2021/12/23 12:41:47;;;;;;;49.25;32.25;;;5.10;83.20;;;;;;5013167;28;20085;-71
2021/12/23 12:44:25;;;;;;;50.45;31.48;;;5.10;83.50;;;;;;5012280;28;20331;-73
2021/12/23 12:47:05;;;;;;;55.53;33.42;;;5.00;84.10;;;;;;5006716;28;20050;-75
2021/12/23 12:49:53;;;;;;;54.53;32.60;;;4.90;84.40;;;;;;5014922;28;20054;-75
2021/12/23 12:52:30;;;;;;;53.63;32.42;;;5.00;84.90;;;;;;5006867;28;20018;-74
2021/12/23 12:55:11;;;;;;;50.55;31.60;;;5.10;84.80;;;;;;5022483;28;20026;-76
2021/12/23 12:57:47;;;;;;;51.50;32.13;;;5.00;84.80;;;;;;5010784;28;20034;-75
2021/12/23 13:00:34;;;;;;;51.28;31.80;;;5.10;85.00;;;;;;5011014;28;20061;-76
2021/12/23 13:03:04;;;;;;;50.63;30.92;;;5.10;85.10;;;;;;5008182;28;20053;-73
2021/12/23 13:05:38;;;;;;;55.13;32.95;;;5.00;85.20;;;;;;5012562;28;20026;-76
2021/12/23 13:08:19;;;;;;;56.88;31.88;;;5.00;85.40;;;;;;5011608;28;20022;-75
2021/12/23 13:10:48;;;;;;;51.25;32.33;;;5.00;85.50;;;;;;5013576;28;20037;-75
2021/12/23 13:13:35;;;;;;;52.50;32.42;;;5.00;85.60;;;;;;5007851;28;20019;-73
2021/12/23 13:16:10;;;;;;;54.72;33.97;;;5.00;85.80;;;;;;5009275;28;20065;-73
2021/12/23 13:18:36;;;;;;;50.03;30.85;;;5.10;86.00;;;;;;5008332;28;20027;-78
2021/12/23 13:21:05;;;;;;;49.45;32.75;;;5.10;85.80;;;;;;5010939;28;20102;-70
2021/12/23 13:23:38;;;;;;;54.28;32.70;;;5.10;85.80;;;;;;5014532;28;20022;-75
2021/12/23 13:26:04;;;;;;;54.35;31.98;;;5.10;85.80;;;;;;5004952;28;20037;-73
2021/12/23 13:28:40;;;;;;;59.53;32.17;;;5.10;85.90;;;;;;5016869;28;20117;-75
2021/12/23 13:31:28;;;;;;;56.15;32.15;;;5.10;86.10;;;;;;5013777;28;20036;-73
2021/12/23 13:34:01;;;;;;;55.50;31.65;;;5.10;86.20;;;;;;5005776;28;20026;-76
2021/12/23 13:36:31;;;;;;;60.53;32.47;;;5.00;86.50;;;;;;5009865;28;20041;-76
2021/12/23 13:39:00;;;;;;;53.92;31.83;;;5.00;86.80;;;;;;5015934;28;20057;-77
2021/12/23 13:41:28;;;;;;;65.78;38.58;;;5.00;87.00;;;;;;5007152;28;20046;-77
2021/12/23 13:43:59;;;;;;;59.03;34.42;;;5.00;87.10;;;;;;5011325;28;21535;-77